createdAt,value
2018-12-30T00:04:47.457Z,5.60
2018-12-30T00:09:53.329Z,4.83
2018-12-30T00:14:59.316Z,4.97
2018-12-30T00:20:04.680Z,5.77
2018-12-30T00:25:10.630Z,5.97
2018-12-30T00:30:16.135Z,5.57
2018-12-30T00:35:21.669Z,5.50
2018-12-30T00:40:26.857Z,5.23
2018-12-30T00:45:32.037Z,5.80
2018-12-30T00:50:37.304Z,5.70
2018-12-30T00:55:42.874Z,6.50
2018-12-30T01:00:48.346Z,5.17
2018-12-30T01:05:54.100Z,4.90
2018-12-30T01:10:59.724Z,3.73
2018-12-30T01:16:05.244Z,4.00
2018-12-30T01:21:10.427Z,3.93
2018-12-30T01:26:16.173Z,3.27
2018-12-30T01:31:21.419Z,3.27
2018-12-30T01:36:27.322Z,2.70
2018-12-30T01:41:32.914Z,2.60
2018-12-30T01:46:38.621Z,2.63
2018-12-30T01:51:43.921Z,2.50
2018-12-30T01:56:49.565Z,3.00
2018-12-30T02:01:55.960Z,2.37
2018-12-30T02:07:01.521Z,2.30
2018-12-30T02:12:06.865Z,2.13
2018-12-30T02:17:12.503Z,1.70
2018-12-30T02:22:17.676Z,1.80
2018-12-30T02:27:23.233Z,1.40
2018-12-30T02:32:28.445Z,1.70
2018-12-30T02:37:34.058Z,1.20
2018-12-30T02:42:39.673Z,1.50
2018-12-30T02:47:45.168Z,1.27
2018-12-30T02:52:50.675Z,1.30
2018-12-30T02:57:55.901Z,1.20
2018-12-30T03:03:01.727Z,1.20
2018-12-30T03:08:07.163Z,0.90
2018-12-30T03:13:12.336Z,0.90
2018-12-30T03:18:18.566Z,0.80
2018-12-30T03:23:23.737Z,0.90
2018-12-30T03:28:28.952Z,0.80
2018-12-30T03:33:34.163Z,0.70
2018-12-30T03:38:40.407Z,0.50
2018-12-30T03:43:46.122Z,0.70
2018-12-30T03:48:51.293Z,0.50
2018-12-30T03:53:56.469Z,0.53
2018-12-30T03:59:02.049Z,0.50
2018-12-30T04:04:07.610Z,0.50
2018-12-30T04:09:12.794Z,0.40
2018-12-30T04:14:17.983Z,0.40
2018-12-30T04:19:23.268Z,0.40
2018-12-30T04:24:28.502Z,0.40
2018-12-30T04:29:33.692Z,0.60
2018-12-30T04:34:39.544Z,0.40
2018-12-30T04:39:44.731Z,0.53
2018-12-30T04:44:50.384Z,0.60
2018-12-30T04:49:56.437Z,0.50
2018-12-30T04:55:02.409Z,0.60
2018-12-30T05:00:07.617Z,0.70
2018-12-30T05:05:13.207Z,0.80
2018-12-30T05:10:18.390Z,0.80
2018-12-30T05:15:24.205Z,1.40
2018-12-30T05:20:29.376Z,1.20
2018-12-30T05:25:34.864Z,1.50
2018-12-30T05:30:40.436Z,1.73
2018-12-30T05:35:45.999Z,1.50
2018-12-30T05:40:51.487Z,1.20
2018-12-30T05:45:57.089Z,1.60
2018-12-30T05:51:02.275Z,1.90
2018-12-30T05:56:10.386Z,1.70
2018-12-30T06:01:15.859Z,2.10
2018-12-30T06:06:20.961Z,1.60
2018-12-30T06:11:27.153Z,1.67
2018-12-30T06:16:32.401Z,1.93
2018-12-30T06:21:37.888Z,2.33
2018-12-30T06:26:43.075Z,2.93
2018-12-30T06:31:48.684Z,2.20
2018-12-30T06:36:54.191Z,2.80
2018-12-30T06:41:59.883Z,2.17
2018-12-30T06:47:05.058Z,2.53
2018-12-30T06:52:10.485Z,2.23
2018-12-30T06:57:17.062Z,2.70
2018-12-30T07:02:22.336Z,2.80
2018-12-30T07:07:27.774Z,2.30
2018-12-30T07:12:33.246Z,2.50
2018-12-30T07:17:38.428Z,2.37
2018-12-30T07:22:44.115Z,2.70
2018-12-30T07:27:49.294Z,2.50
2018-12-30T07:32:55.121Z,2.33
2018-12-30T07:38:00.272Z,2.27
2018-12-30T07:43:05.709Z,2.23
2018-12-30T07:48:10.856Z,2.30
2018-12-30T07:53:17.438Z,1.97
2018-12-30T07:58:22.675Z,2.50
2018-12-30T08:03:28.466Z,2.33
2018-12-30T08:08:34.062Z,2.43
2018-12-30T08:13:39.629Z,3.00
2018-12-30T08:18:44.769Z,3.10
2018-12-30T08:23:50.256Z,2.67
2018-12-30T08:28:55.638Z,2.80
2018-12-30T08:34:01.821Z,2.77
2018-12-30T08:39:08.568Z,2.83
2018-12-30T08:44:14.109Z,2.80
2018-12-30T08:49:19.206Z,3.10
2018-12-30T08:54:25.058Z,2.53
2018-12-30T08:59:31.181Z,2.80
2018-12-30T09:04:36.453Z,2.63
2018-12-30T09:09:41.630Z,2.03
2018-12-30T09:14:46.814Z,2.40
2018-12-30T09:19:52.086Z,3.10
2018-12-30T09:24:58.038Z,2.40
2018-12-30T09:30:04.106Z,2.30
2018-12-30T09:35:09.709Z,2.40
2018-12-30T09:40:14.969Z,3.13
2018-12-30T09:45:20.143Z,2.33
2018-12-30T09:50:25.808Z,2.20
2018-12-30T09:55:31.045Z,2.53
2018-12-30T10:00:36.935Z,2.50
2018-12-30T10:05:42.711Z,2.27
2018-12-30T10:10:48.226Z,2.53
2018-12-30T10:15:54.059Z,2.10
2018-12-30T10:20:59.544Z,2.17
2018-12-30T10:26:04.818Z,2.20
2018-12-30T10:31:10.375Z,1.83
2018-12-30T10:36:15.773Z,2.70
2018-12-30T10:41:21.026Z,1.70
2018-12-30T10:46:27.320Z,2.47
2018-12-30T10:51:32.784Z,1.57
2018-12-30T10:56:37.999Z,1.87
2018-12-30T11:01:43.176Z,1.50
2018-12-30T11:06:48.403Z,1.70
2018-12-30T11:11:53.700Z,1.70
2018-12-30T11:16:58.891Z,1.60
2018-12-30T11:22:04.947Z,1.60
2018-12-30T11:27:10.265Z,1.57
2018-12-30T11:32:18.263Z,1.40
2018-12-30T11:37:23.449Z,1.43
2018-12-30T11:42:28.798Z,1.33
2018-12-30T11:47:34.381Z,1.10
2018-12-30T11:52:40.206Z,1.20
2018-12-30T11:57:45.686Z,1.40
2018-12-30T12:02:52.076Z,1.33
2018-12-30T12:07:57.238Z,1.40
2018-12-30T12:13:03.839Z,1.30
2018-12-30T12:18:09.424Z,1.30
2018-12-30T12:23:14.868Z,1.20
2018-12-30T12:28:20.036Z,1.20
2018-12-30T12:33:25.161Z,1.00
2018-12-30T12:38:30.623Z,1.20
2018-12-30T12:43:36.233Z,1.37
2018-12-30T12:48:41.321Z,1.07
2018-12-30T12:53:46.591Z,1.20
2018-12-30T12:58:52.950Z,1.60
2018-12-30T13:03:58.776Z,1.10
2018-12-30T13:09:05.707Z,1.20
2018-12-30T13:14:11.525Z,1.50
2018-12-30T13:19:17.163Z,1.10
2018-12-30T13:24:23.525Z,1.80
2018-12-30T13:29:28.723Z,1.30
2018-12-30T13:34:33.996Z,1.60
2018-12-30T13:39:39.924Z,1.43
2018-12-30T13:44:45.484Z,2.23
2018-12-30T13:49:52.132Z,1.63
2018-12-30T13:54:57.359Z,1.60
2018-12-30T14:00:02.956Z,1.50
2018-12-30T14:05:08.557Z,1.30
2018-12-30T14:10:13.852Z,1.40
2018-12-30T14:15:19.155Z,1.50
2018-12-30T14:20:24.357Z,1.40
2018-12-30T14:25:29.881Z,1.30
2018-12-30T14:30:35.007Z,1.63
2018-12-30T14:35:40.352Z,1.80
2018-12-30T14:40:45.991Z,1.50
2018-12-30T14:45:51.182Z,1.50
2018-12-30T14:50:56.554Z,1.77
2018-12-30T14:56:02.494Z,1.50
2018-12-30T15:01:14.595Z,1.30
2018-12-30T15:06:18.107Z,1.80
2018-12-30T15:11:24.743Z,1.93
2018-12-30T15:16:32.006Z,1.60
2018-12-30T15:21:37.554Z,1.77
2018-12-30T15:26:43.545Z,1.70
2018-12-30T15:31:49.122Z,1.70
2018-12-30T15:36:54.317Z,1.60
2018-12-30T15:41:59.780Z,1.60
2018-12-30T15:47:06.047Z,1.50
2018-12-30T15:52:11.281Z,1.73
2018-12-30T15:57:17.228Z,1.70
2018-12-30T16:02:22.444Z,1.57
2018-12-30T16:07:27.612Z,1.47
2018-12-30T16:12:32.822Z,1.37
2018-12-30T16:17:38.871Z,1.30
2018-12-30T16:22:44.447Z,1.40
2018-12-30T16:27:49.714Z,1.70
2018-12-30T16:32:55.823Z,1.63
2018-12-30T16:38:02.176Z,1.67
2018-12-30T16:43:07.633Z,1.83
2018-12-30T16:48:12.800Z,2.70
2018-12-30T16:53:18.134Z,2.10
2018-12-30T16:58:23.329Z,2.30
2018-12-30T17:03:29.355Z,2.67
2018-12-30T17:08:34.825Z,2.00
2018-12-30T17:13:40.075Z,2.00
2018-12-30T17:18:46.348Z,2.60
2018-12-30T17:23:51.931Z,2.70
2018-12-30T17:28:57.110Z,2.20
2018-12-30T17:34:02.792Z,2.60
2018-12-30T17:39:08.288Z,4.77
2018-12-30T17:44:14.306Z,3.87
2018-12-30T17:49:19.956Z,2.60
2018-12-30T17:54:25.272Z,2.53
2018-12-30T17:59:30.439Z,2.50
2018-12-30T18:04:36.393Z,2.10
2018-12-30T18:09:41.938Z,2.47
2018-12-30T18:14:47.985Z,2.30
2018-12-30T18:19:53.281Z,2.40
2018-12-30T18:24:59.637Z,2.60
2018-12-30T18:30:05.469Z,2.27
2018-12-30T18:35:10.694Z,3.53
2018-12-30T18:40:16.064Z,2.17
2018-12-30T18:45:21.401Z,2.10
2018-12-30T18:50:26.754Z,2.27
2018-12-30T18:55:32.957Z,3.33
2018-12-30T19:00:38.511Z,2.90
2018-12-30T19:05:43.892Z,2.40
2018-12-30T19:10:49.359Z,2.40
2018-12-30T19:15:55.678Z,2.20
2018-12-30T19:21:01.199Z,2.70
2018-12-30T19:26:06.371Z,2.33
2018-12-30T19:31:11.922Z,2.70
2018-12-30T19:36:18.533Z,2.30
2018-12-30T19:41:24.291Z,2.10
2018-12-30T19:46:29.830Z,2.03
2018-12-30T19:51:35.941Z,3.70
2018-12-30T19:56:42.084Z,4.03
2018-12-30T20:01:47.256Z,3.10
2018-12-30T20:06:53.081Z,2.67
2018-12-30T20:11:58.559Z,3.10
2018-12-30T20:17:03.874Z,2.50
2018-12-30T20:22:09.089Z,2.37
2018-12-30T20:27:14.753Z,2.47
2018-12-30T20:32:25.653Z,3.00
2018-12-30T20:37:33.771Z,3.13
2018-12-30T20:42:39.201Z,2.20
2018-12-30T20:47:45.472Z,2.20
2018-12-30T20:52:50.648Z,2.60
2018-12-30T20:57:55.810Z,2.40
2018-12-30T21:03:01.040Z,4.77
2018-12-30T21:08:06.311Z,4.13
2018-12-30T21:13:11.495Z,3.30
2018-12-30T21:18:16.842Z,2.67
2018-12-30T21:23:24.289Z,2.40
2018-12-30T21:28:30.200Z,2.80
2018-12-30T21:33:35.376Z,2.93
2018-12-30T21:38:40.799Z,2.87
2018-12-30T21:43:48.021Z,3.13
2018-12-30T21:48:53.247Z,3.77
2018-12-30T21:53:58.749Z,4.10
2018-12-30T21:59:03.969Z,3.40
2018-12-30T22:04:09.971Z,4.60
2018-12-30T22:09:15.387Z,3.57
2018-12-30T22:14:21.259Z,3.93
2018-12-30T22:19:26.901Z,4.07
2018-12-30T22:24:34.852Z,3.77
2018-12-30T22:29:40.074Z,4.17
2018-12-30T22:34:45.260Z,3.80
2018-12-30T22:39:51.598Z,5.30
2018-12-30T22:44:56.911Z,4.70
2018-12-30T22:50:04.147Z,4.07
2018-12-30T22:55:09.833Z,4.33
2018-12-30T23:00:36.793Z,4.50
2018-12-30T23:05:42.890Z,4.40
2018-12-30T23:10:52.598Z,4.50
2018-12-30T23:15:57.775Z,4.07
2018-12-30T23:21:02.981Z,4.73
2018-12-30T23:26:08.168Z,4.47
2018-12-30T23:31:14.193Z,4.63
2018-12-30T23:36:19.584Z,4.60
2018-12-30T23:41:24.846Z,5.00
2018-12-30T23:46:30.382Z,4.70
2018-12-30T23:51:36.079Z,5.00
2018-12-30T23:56:41.288Z,5.10
